Scroll down
FLIGHT INFORMATION
PMDG Flight Operations

PFO3265

At Arrival Gate

YSSY
 KSFO
DATE: 2018-08-19
GATE: CARGO 2
GATE DEPARTURE: 20:04
TAKEOFF: 20:16
DATE: 2018-08-20
GATE:  -
LANDING: 09:10
GATE ARRIVAL: 09:15
FLIGHT DATA
Crew: 
Speed: 
512 kts
Altitude: 
37,025 ft
Stage Length: 
6,452.4 nm
Block Time: 
13.2 hrs
Flight Time: 
12.9 hrs
Fuel Used: 
285,878 lb
Cleared Route: 
TRACK DATA
50,000 ft 1,000 kts
AIRCRAFT INFO AND CUMULATIVE STATS
Aircraft Type: 
B748F
Registration: 
SELCAL: 
MSN/LN: 
0 / 2
Total Flights: 
6
Total Block Time: 
52.1 hrs
Total Flight Time: 
50.7 hrs
Total Fuel Time: 
1,013,403 lb
DATALINK LOG | Newest first | Current as of: 2021-01-22 00:25:56
LABEL SEQUENCE CONTENT Dn/Up
QD152409:15 41.5▼ Dn
QC105609:10▼ Dn
GA1833ADVANCED GATE ASSIGNMENTS NOT YET AVAILABLE AT THIS AIRPORT▲ Up
GR1917KSFO▼ Dn
5U0421KSFO 191736Z 1918/2024 33009KT P6SM FEW006 SCT010 SCT013 FM192100 30016KT P6SM FEW010 FM200400 29010KT P6SM FEW007 FM200800 28007KT P6SM FEW007 FM201200 27005KT P6SM OVC008 FM201700 27006KT P6SM FEW010 FM202100 30016KT P6SM FEW010▲ Up
5S0440KSFO▼ Dn
2U0420KSFO 192056Z 30017KT 10SM FEW008 19/12 A2993 RMK AO2 SLP135 T01940122 58019▲ Up
2S0435KSFO▼ Dn
QB162220:16▼ Dn
QA004620:04 327.8▼ Dn
2U0851YSSY 190800Z 25021G34KT CAVOK 12/M02 Q1013 FM0940 22015G30KT 9999 SCT065 FM0800 MOD/SEV TURB BLW 5000FT▲ Up
2S0927YSSY▼ Dn


AIRCRAFT HISTORY
FLIGHT DATE FLIGHT NO. ORIGIN DESTINATION CLEARED ROUTE BLOCK TIME FLIGHT TIME FUEL USED PILOT
2018-08-24PFO24KLAX ZBAA 12.8 hrs12.4 hrs246,438 lbMichael Roth
2018-08-23PFO23KIAD KLAX 4.9 hrs4.7 hrs96,956 lbMichael Roth
2018-08-20PFO1204KSFO KIAD 4.9 hrs4.4 hrs94,882 lbMark Adeane
2018-08-19PFO3265YSSY KSFO 13.2 hrs12.9 hrs285,878 lbMark Adeane
2018-08-04PFO804KLAX YSSY 14.5 hrs14.2 hrs250,945 lbKyle Rodgers
2018-08-04PFO804KPAE KLAX 2.4 hrs2.1 hrs38,304 lbKyle Rodgers